Time;durP1;ratioP1;P1;durP2;ratioP2;P2;SDS_P1;SDS_P2;PMS_P1;PMS_P2;Temp;Humidity;BMP_temperature;BMP_pressure;BME280_temperature;BME280_humidity;BME280_pressure;Samples;Min_cycle;Max_cycle;Signal;HPM_P1;HPM_P2
2021/09/18 00:01:46;;;;;;;12.35;9.60;;;12.70;99.90;;;;;;5058482;28;20035;-78
2021/09/18 00:04:20;;;;;;;11.55;9.77;;;12.70;99.90;;;;;;5060138;28;20084;-78
2021/09/18 00:06:49;;;;;;;14.55;9.40;;;12.70;99.90;;;;;;5058661;28;20519;-77
2021/09/18 00:09:14;;;;;;;10.10;8.48;;;12.60;99.90;;;;;;5057183;28;20029;-81
2021/09/18 00:11:40;;;;;;;12.40;9.90;;;12.50;99.90;;;;;;5060589;28;20504;-80
2021/09/18 00:14:05;;;;;;;11.20;10.05;;;12.30;99.90;;;;;;5058552;28;20495;-81
2021/09/18 00:16:31;;;;;;;15.02;9.55;;;12.30;99.90;;;;;;5067015;28;20032;-81
2021/09/18 00:18:56;;;;;;;10.23;9.25;;;12.30;99.90;;;;;;5074564;28;20036;-78
2021/09/18 00:21:22;;;;;;;11.88;10.07;;;12.30;99.90;;;;;;5056281;28;20035;-78
2021/09/18 00:23:49;;;;;;;11.95;9.90;;;12.30;99.90;;;;;;5084483;28;20025;-78
2021/09/18 00:26:14;;;;;;;12.57;9.48;;;12.30;99.90;;;;;;5053042;28;20596;-77
2021/09/18 00:28:40;;;;;;;11.73;10.35;;;12.20;99.90;;;;;;5054536;28;20124;-78
2021/09/18 00:31:05;;;;;;;11.00;9.73;;;12.30;99.90;;;;;;5056471;28;20090;-77
2021/09/18 00:33:31;;;;;;;10.90;9.73;;;12.20;99.90;;;;;;5056615;28;20025;-80
2021/09/18 00:35:56;;;;;;;13.15;9.80;;;12.20;99.90;;;;;;5056335;28;20032;-78
2021/09/18 00:38:22;;;;;;;11.68;9.15;;;12.10;99.90;;;;;;5054575;28;20036;-78
2021/09/18 00:40:47;;;;;;;10.70;8.63;;;12.10;99.90;;;;;;5057659;28;20036;-78
2021/09/18 00:43:13;;;;;;;15.95;9.15;;;12.10;99.90;;;;;;5056552;28;20025;-78
2021/09/18 00:45:38;;;;;;;11.18;9.32;;;12.10;99.90;;;;;;5054903;28;20041;-78
2021/09/18 00:48:04;;;;;;;10.55;8.93;;;12.00;99.90;;;;;;5054191;28;20067;-78
2021/09/18 00:50:30;;;;;;;11.13;9.43;;;12.00;99.90;;;;;;5051972;28;20028;-78
2021/09/18 00:52:58;;;;;;;11.43;10.23;;;12.00;99.90;;;;;;5053205;28;20064;-78
2021/09/18 00:55:24;;;;;;;11.88;10.68;;;12.00;99.90;;;;;;5051354;28;20033;-78
2021/09/18 00:57:49;;;;;;;11.00;9.90;;;12.00;99.90;;;;;;5053890;28;20104;-76
2021/09/18 01:00:15;;;;;;;14.68;10.93;;;12.00;99.90;;;;;;5051786;28;20115;-78
2021/09/18 01:02:41;;;;;;;12.73;10.45;;;12.00;99.90;;;;;;5052405;28;20116;-78
2021/09/18 01:05:08;;;;;;;13.73;12.30;;;11.90;99.90;;;;;;5052828;28;20037;-78
2021/09/18 01:07:35;;;;;;;17.60;13.00;;;11.90;99.90;;;;;;5085528;28;20064;-77
2021/09/18 01:10:01;;;;;;;11.63;9.82;;;11.90;99.90;;;;;;5053800;28;20396;-78
2021/09/18 01:12:27;;;;;;;13.60;9.60;;;11.90;99.90;;;;;;5064264;28;20029;-78
2021/09/18 01:14:52;;;;;;;11.90;9.98;;;11.90;99.90;;;;;;5056897;28;20048;-78
2021/09/18 01:17:18;;;;;;;11.10;9.43;;;11.90;99.90;;;;;;5057930;28;20028;-77
2021/09/18 01:19:44;;;;;;;11.07;9.27;;;11.80;99.90;;;;;;5057494;28;20025;-78
2021/09/18 01:22:10;;;;;;;10.63;8.80;;;11.80;99.90;;;;;;5053418;28;20025;-78
2021/09/18 01:24:37;;;;;;;11.18;8.95;;;11.80;99.90;;;;;;5060423;28;20080;-77
2021/09/18 01:27:03;;;;;;;8.95;8.05;;;11.80;99.90;;;;;;5070513;28;20025;-77
2021/09/18 01:29:28;;;;;;;8.45;7.75;;;11.80;99.90;;;;;;5070341;28;20056;-77
2021/09/18 01:31:54;;;;;;;9.98;9.00;;;11.70;99.90;;;;;;5071797;28;20036;-77
2021/09/18 01:34:22;;;;;;;9.63;8.73;;;11.80;99.90;;;;;;5071725;28;20009;-77
2021/09/18 01:36:49;;;;;;;9.15;8.35;;;11.70;99.90;;;;;;5072030;28;20025;-78
2021/09/18 01:39:17;;;;;;;9.63;8.75;;;11.80;99.90;;;;;;5068415;28;20047;-79
2021/09/18 01:41:44;;;;;;;8.52;7.45;;;11.80;99.90;;;;;;5052705;28;20037;-77
2021/09/18 01:44:12;;;;;;;9.65;8.50;;;11.70;99.90;;;;;;5054996;28;20411;-78
2021/09/18 01:46:37;;;;;;;11.18;8.40;;;11.70;99.90;;;;;;5056518;28;20392;-78
2021/09/18 01:49:03;;;;;;;8.82;8.02;;;11.70;99.90;;;;;;5056396;28;20025;-79
2021/09/18 01:51:30;;;;;;;14.15;10.15;;;11.70;99.90;;;;;;5054147;28;20392;-79
2021/09/18 01:53:55;;;;;;;11.07;8.77;;;11.70;99.90;;;;;;5054885;28;20017;-78
2021/09/18 01:56:21;;;;;;;9.20;8.32;;;11.80;99.90;;;;;;5056989;28;20096;-77
2021/09/18 01:58:47;;;;;;;10.88;7.53;;;11.80;99.90;;;;;;5057951;28;20025;-79
2021/09/18 02:01:12;;;;;;;9.70;8.80;;;11.90;99.90;;;;;;5056628;28;20025;-78
2021/09/18 02:03:38;;;;;;;12.00;8.20;;;11.80;99.90;;;;;;5053955;28;20021;-77
2021/09/18 02:06:04;;;;;;;10.82;9.45;;;11.90;99.90;;;;;;5054734;28;20025;-78
2021/09/18 02:08:29;;;;;;;12.07;7.72;;;11.90;99.90;;;;;;5053389;28;20025;-78
2021/09/18 02:10:56;;;;;;;9.32;8.30;;;11.80;99.90;;;;;;5064383;28;20491;-78
2021/09/18 02:13:22;;;;;;;9.70;8.80;;;11.80;99.90;;;;;;5064025;28;20032;-78
2021/09/18 02:15:48;;;;;;;15.68;9.32;;;11.80;99.90;;;;;;5056185;28;20504;-78
2021/09/18 02:18:14;;;;;;;13.70;9.38;;;11.90;99.90;;;;;;5061958;28;20035;-78
2021/09/18 02:20:41;;;;;;;10.80;9.80;;;11.90;99.90;;;;;;5076248;28;20024;-79
2021/09/18 02:23:09;;;;;;;9.95;9.05;;;11.80;99.90;;;;;;5074381;28;20090;-79
2021/09/18 02:25:34;;;;;;;10.50;9.23;;;11.70;99.90;;;;;;5076959;28;20559;-78
2021/09/18 02:28:00;;;;;;;12.68;9.80;;;11.70;99.90;;;;;;5076403;28;20036;-78
2021/09/18 02:30:29;;;;;;;11.00;9.88;;;11.70;99.90;;;;;;5074372;28;20369;-77
2021/09/18 02:32:56;;;;;;;12.18;10.95;;;11.60;99.90;;;;;;5075882;28;20411;-76
2021/09/18 02:35:23;;;;;;;11.00;9.85;;;11.60;99.90;;;;;;5075462;28;20196;-78
2021/09/18 02:37:54;;;;;;;10.77;9.68;;;11.60;99.90;;;;;;5074429;28;20143;-78
2021/09/18 02:40:20;;;;;;;11.02;10.02;;;11.70;99.90;;;;;;5076698;28;20034;-78
2021/09/18 02:42:49;;;;;;;11.60;10.27;;;11.70;99.90;;;;;;5078156;28;20051;-78
2021/09/18 02:45:16;;;;;;;11.30;10.10;;;11.80;99.90;;;;;;5074084;28;20372;-78
2021/09/18 02:47:42;;;;;;;10.23;9.15;;;11.80;99.90;;;;;;5072646;28;20028;-78
2021/09/18 02:50:09;;;;;;;17.75;11.38;;;11.90;99.90;;;;;;5078557;28;20028;-78
2021/09/18 02:52:35;;;;;;;11.20;10.23;;;11.80;99.90;;;;;;5079434;28;20032;-78
2021/09/18 02:55:00;;;;;;;10.75;9.35;;;11.70;99.90;;;;;;5082162;28;20024;-78
2021/09/18 02:57:26;;;;;;;13.05;10.30;;;11.70;99.90;;;;;;5078548;28;20116;-78
2021/09/18 02:59:52;;;;;;;13.50;10.35;;;11.50;99.90;;;;;;5077068;28;20464;-78
2021/09/18 03:02:17;;;;;;;11.50;10.32;;;11.50;99.90;;;;;;5077424;28;20043;-78
2021/09/18 03:04:43;;;;;;;12.65;10.60;;;11.40;99.90;;;;;;5077646;28;20126;-78
2021/09/18 03:07:09;;;;;;;10.85;9.82;;;11.40;99.90;;;;;;5078485;28;20020;-78
2021/09/18 03:09:34;;;;;;;13.10;11.50;;;11.40;99.90;;;;;;5065713;28;20541;-78
2021/09/18 03:12:00;;;;;;;11.40;10.35;;;11.30;99.90;;;;;;5071983;28;20016;-78
2021/09/18 03:14:26;;;;;;;10.98;9.88;;;11.30;99.90;;;;;;5070748;28;20138;-78
2021/09/18 03:16:51;;;;;;;10.85;9.65;;;11.30;99.90;;;;;;5057423;28;20021;-78
2021/09/18 03:19:17;;;;;;;12.18;10.93;;;11.30;99.90;;;;;;5059806;28;20033;-77
2021/09/18 03:21:42;;;;;;;11.52;10.32;;;11.30;99.90;;;;;;5062635;28;20032;-78
2021/09/18 03:24:08;;;;;;;13.25;10.95;;;11.30;99.90;;;;;;5056993;28;20031;-78
2021/09/18 03:26:34;;;;;;;12.27;11.13;;;11.40;99.90;;;;;;5055994;28;20075;-78
2021/09/18 03:28:59;;;;;;;12.15;11.05;;;11.40;99.90;;;;;;5053578;28;20503;-77
2021/09/18 03:31:25;;;;;;;12.13;10.90;;;11.40;99.90;;;;;;5053218;28;20028;-77
2021/09/18 03:33:51;;;;;;;13.75;11.63;;;11.40;99.90;;;;;;5056030;28;20382;-77
2021/09/18 03:36:16;;;;;;;11.75;10.52;;;11.30;99.90;;;;;;5056697;28;20327;-78
2021/09/18 03:38:42;;;;;;;12.50;10.88;;;11.30;99.90;;;;;;5061145;28;20064;-78
2021/09/18 03:41:07;;;;;;;11.77;10.55;;;11.30;99.90;;;;;;5056087;28;20025;-77
2021/09/18 03:43:34;;;;;;;11.60;10.48;;;11.30;99.90;;;;;;5057765;28;20029;-78
2021/09/18 03:45:59;;;;;;;16.55;11.48;;;11.30;99.90;;;;;;5058543;28;20392;-77
2021/09/18 03:48:25;;;;;;;12.10;10.90;;;11.40;99.90;;;;;;5055860;28;20025;-78
2021/09/18 03:50:50;;;;;;;11.82;10.60;;;11.30;99.90;;;;;;5057958;28;20500;-78
2021/09/18 03:53:16;;;;;;;12.25;10.88;;;11.30;99.90;;;;;;5054564;28;20032;-78
2021/09/18 03:55:42;;;;;;;15.40;11.50;;;11.30;99.90;;;;;;5054222;28;20032;-78
2021/09/18 03:58:07;;;;;;;11.75;10.65;;;11.40;99.90;;;;;;5053312;28;20472;-77
2021/09/18 04:00:33;;;;;;;11.65;10.45;;;11.40;99.90;;;;;;5054418;28;20035;-77
2021/09/18 04:02:59;;;;;;;11.75;9.68;;;11.30;99.90;;;;;;5057095;28;20064;-78
2021/09/18 04:05:24;;;;;;;11.75;10.60;;;11.40;99.90;;;;;;5057322;28;20166;-76
2021/09/18 04:07:50;;;;;;;14.40;11.15;;;11.30;99.90;;;;;;5055255;28;20365;-77
2021/09/18 04:10:15;;;;;;;12.52;11.25;;;11.20;99.90;;;;;;5067045;28;20017;-78
2021/09/18 04:12:41;;;;;;;10.60;9.63;;;11.10;99.90;;;;;;5070386;28;20027;-78
2021/09/18 04:15:07;;;;;;;15.02;10.05;;;11.10;99.90;;;;;;5077634;28;20418;-78
2021/09/18 04:17:33;;;;;;;12.60;10.68;;;11.10;99.90;;;;;;5057380;28;20021;-77
2021/09/18 04:19:59;;;;;;;12.10;10.85;;;11.10;99.90;;;;;;5057545;28;20036;-78
2021/09/18 04:22:24;;;;;;;11.48;10.18;;;11.10;99.90;;;;;;5054369;28;20388;-78
2021/09/18 04:24:50;;;;;;;10.85;9.85;;;11.10;99.90;;;;;;5059179;28;20033;-78
2021/09/18 04:27:16;;;;;;;15.52;9.77;;;11.10;99.90;;;;;;5060871;28;20464;-78
2021/09/18 04:29:41;;;;;;;10.40;9.40;;;11.10;99.90;;;;;;5055031;28;20033;-77
2021/09/18 04:32:07;;;;;;;21.00;15.70;;;11.00;99.90;;;;;;5061385;28;20021;-78
2021/09/18 04:34:32;;;;;;;11.57;10.48;;;10.90;99.90;;;;;;5057953;28;20086;-78
2021/09/18 04:36:58;;;;;;;11.55;10.38;;;11.00;99.90;;;;;;5058536;28;20093;-78
2021/09/18 04:39:24;;;;;;;11.80;10.55;;;10.90;99.90;;;;;;5057354;28;20025;-78
2021/09/18 04:41:50;;;;;;;13.23;10.75;;;10.80;99.90;;;;;;5054945;28;20025;-77
2021/09/18 04:44:16;;;;;;;14.90;13.38;;;10.80;99.90;;;;;;5060714;28;20147;-78
2021/09/18 04:46:42;;;;;;;18.00;16.13;;;10.70;99.90;;;;;;5060753;28;20041;-78
2021/09/18 04:49:09;;;;;;;17.10;15.40;;;10.70;99.90;;;;;;5059299;28;20029;-78
2021/09/18 04:51:36;;;;;;;19.15;17.15;;;10.60;99.90;;;;;;5061344;28;20025;-78
2021/09/18 04:54:01;;;;;;;18.75;17.00;;;10.60;99.90;;;;;;5060433;28;20035;-78
2021/09/18 04:56:27;;;;;;;17.85;15.95;;;10.60;99.90;;;;;;5059523;28;20035;-78
2021/09/18 04:58:52;;;;;;;16.50;13.82;;;10.60;99.90;;;;;;5062155;28;20096;-78
2021/09/18 05:01:18;;;;;;;17.25;15.20;;;10.60;99.90;;;;;;5058155;28;20503;-77
2021/09/18 05:03:43;;;;;;;18.40;14.95;;;10.60;99.90;;;;;;5057370;28;20162;-78
2021/09/18 05:06:09;;;;;;;12.90;11.40;;;10.60;99.90;;;;;;5059882;28;20033;-78
2021/09/18 05:08:34;;;;;;;13.30;10.73;;;10.70;99.90;;;;;;5058045;28;20266;-78
2021/09/18 05:11:00;;;;;;;11.85;10.55;;;10.70;99.90;;;;;;5061694;28;20079;-78
2021/09/18 05:13:26;;;;;;;12.15;9.38;;;10.80;99.90;;;;;;5070773;28;20395;-77
2021/09/18 05:15:51;;;;;;;12.48;10.90;;;10.80;99.90;;;;;;5063432;28;20499;-79
2021/09/18 05:18:17;;;;;;;12.48;9.85;;;10.90;99.90;;;;;;5057154;28;20033;-78
2021/09/18 05:20:42;;;;;;;12.02;9.63;;;11.00;99.90;;;;;;5058285;28;20021;-78
2021/09/18 05:23:08;;;;;;;13.00;11.18;;;11.10;99.90;;;;;;5060339;28;20024;-77
2021/09/18 05:25:33;;;;;;;14.85;11.05;;;11.20;99.90;;;;;;5057389;28;20065;-80
2021/09/18 05:27:59;;;;;;;10.40;9.40;;;11.40;99.90;;;;;;5054911;28;20504;-78
2021/09/18 05:30:24;;;;;;;12.00;9.20;;;11.60;99.90;;;;;;5058511;28;20032;-78
2021/09/18 05:32:50;;;;;;;9.23;8.13;;;11.80;99.90;;;;;;5058360;28;20044;-78
2021/09/18 05:35:15;;;;;;;13.90;8.77;;;11.90;99.90;;;;;;5054489;28;20051;-77
2021/09/18 05:37:41;;;;;;;13.48;8.45;;;12.10;99.90;;;;;;5055304;28;20027;-78
2021/09/18 05:40:07;;;;;;;9.23;8.32;;;12.20;99.90;;;;;;5057914;28;20191;-78
2021/09/18 05:42:33;;;;;;;10.55;9.45;;;12.00;99.90;;;;;;5053846;28;20037;-78
2021/09/18 05:44:58;;;;;;;16.15;10.77;;;11.80;99.90;;;;;;5058920;28;20029;-79
2021/09/18 05:47:24;;;;;;;13.50;11.48;;;11.60;99.90;;;;;;5070062;28;20029;-78
2021/09/18 05:49:49;;;;;;;12.68;10.02;;;11.60;99.90;;;;;;5057417;28;20063;-78
2021/09/18 05:52:15;;;;;;;11.77;9.10;;;11.60;99.90;;;;;;5058192;28;20025;-77
2021/09/18 05:54:40;;;;;;;12.40;8.30;;;11.80;99.90;;;;;;5059980;28;20047;-79
2021/09/18 05:57:06;;;;;;;10.00;8.55;;;11.80;99.90;;;;;;5058839;28;20051;-78
2021/09/18 05:59:32;;;;;;;9.52;8.35;;;12.00;99.90;;;;;;5055936;28;20029;-78
2021/09/18 06:01:57;;;;;;;9.05;8.15;;;12.10;99.90;;;;;;5058740;28;20028;-79
2021/09/18 06:04:23;;;;;;;11.25;8.88;;;12.20;99.90;;;;;;5058519;28;20393;-79
2021/09/18 06:06:48;;;;;;;11.25;10.05;;;12.20;99.90;;;;;;5058938;28;20051;-79
2021/09/18 06:09:14;;;;;;;11.38;9.82;;;12.30;99.90;;;;;;5060507;28;20139;-77
2021/09/18 06:11:39;;;;;;;10.65;9.25;;;12.30;99.90;;;;;;5062989;28;20388;-79
2021/09/18 06:14:05;;;;;;;14.50;9.50;;;12.20;99.90;;;;;;5071303;28;20086;-78
2021/09/18 06:16:31;;;;;;;9.95;8.95;;;12.20;99.90;;;;;;5068643;28;20051;-77
2021/09/18 06:18:56;;;;;;;9.90;8.90;;;12.20;99.90;;;;;;5050931;28;20546;-78
2021/09/18 06:21:22;;;;;;;9.85;8.73;;;12.30;99.90;;;;;;5054049;28;20028;-78
2021/09/18 06:23:48;;;;;;;9.63;8.63;;;12.30;99.90;;;;;;5053852;28;20029;-77
2021/09/18 06:26:16;;;;;;;11.82;9.05;;;12.30;99.90;;;;;;5051333;28;20492;-80
2021/09/18 06:28:43;;;;;;;10.48;9.40;;;12.40;99.90;;;;;;5055737;28;20075;-79
2021/09/18 06:31:08;;;;;;;9.85;8.95;;;12.60;99.90;;;;;;5056461;28;20028;-79
2021/09/18 06:33:34;;;;;;;10.23;9.15;;;12.80;99.90;;;;;;5054865;28;20017;-77
2021/09/18 06:36:00;;;;;;;10.80;9.80;;;12.90;99.90;;;;;;5056400;28;20074;-78
2021/09/18 06:38:26;;;;;;;11.50;10.20;;;12.90;99.90;;;;;;5055065;28;20079;-79
2021/09/18 06:40:54;;;;;;;8.90;8.10;;;13.00;99.90;;;;;;5055063;28;20032;-77
2021/09/18 06:43:21;;;;;;;9.40;8.40;;;13.00;99.90;;;;;;5054985;28;20124;-76
2021/09/18 06:45:47;;;;;;;10.02;8.75;;;13.00;99.90;;;;;;5057156;28;20074;-79
2021/09/18 06:48:13;;;;;;;9.65;8.75;;;12.80;99.90;;;;;;5056516;28;20546;-79
2021/09/18 06:50:40;;;;;;;9.75;8.85;;;13.10;99.90;;;;;;5054966;28;20029;-79
2021/09/18 06:53:06;;;;;;;11.98;9.00;;;13.20;99.90;;;;;;5054853;28;20020;-78
2021/09/18 06:55:32;;;;;;;11.10;9.18;;;13.30;99.90;;;;;;5055531;28;20114;-79
2021/09/18 06:57:58;;;;;;;10.85;9.65;;;13.50;99.90;;;;;;5054690;28;20029;-78
2021/09/18 07:00:24;;;;;;;10.23;9.30;;;13.50;99.90;;;;;;5061974;28;20483;-79
2021/09/18 07:02:50;;;;;;;9.68;8.27;;;13.50;99.90;;;;;;5069157;28;20132;-78
2021/09/18 07:05:15;;;;;;;9.25;8.43;;;13.60;99.90;;;;;;5075421;28;20070;-79
2021/09/18 07:07:41;;;;;;;9.35;8.50;;;13.70;99.90;;;;;;5055067;28;20062;-79
2021/09/18 07:10:07;;;;;;;10.50;8.98;;;13.60;99.90;;;;;;5055166;28;20029;-77
2021/09/18 07:12:33;;;;;;;10.05;8.50;;;13.70;99.90;;;;;;5054093;28;20484;-81
2021/09/18 07:14:58;;;;;;;10.02;8.98;;;13.70;99.90;;;;;;5055822;28;20043;-77
2021/09/18 07:17:24;;;;;;;9.07;8.27;;;13.70;99.90;;;;;;5056193;28;20387;-79
2021/09/18 07:19:50;;;;;;;14.15;8.40;;;13.80;99.90;;;;;;5054361;28;20031;-79
2021/09/18 07:22:16;;;;;;;8.75;7.85;;;13.70;99.90;;;;;;5054768;28;20029;-79
2021/09/18 07:24:41;;;;;;;10.38;9.18;;;13.80;99.90;;;;;;5054824;28;20035;-79
2021/09/18 07:27:07;;;;;;;8.63;7.85;;;13.90;99.90;;;;;;5054216;28;20411;-78
2021/09/18 07:29:33;;;;;;;9.10;8.02;;;14.10;99.90;;;;;;5055433;28;20078;-80
2021/09/18 07:31:59;;;;;;;10.35;8.43;;;14.10;99.90;;;;;;5054609;28;20021;-78
2021/09/18 07:34:24;;;;;;;10.85;8.38;;;14.20;99.90;;;;;;5054108;28;20032;-78
2021/09/18 07:36:50;;;;;;;9.85;8.93;;;14.40;99.90;;;;;;5054307;28;20116;-79
2021/09/18 07:39:16;;;;;;;9.98;8.18;;;14.40;99.90;;;;;;5055047;28;20032;-80
2021/09/18 07:41:42;;;;;;;9.18;8.07;;;14.50;99.90;;;;;;5055647;28;20021;-78
2021/09/18 07:44:08;;;;;;;8.65;7.78;;;14.50;99.90;;;;;;5051763;28;20082;-79
2021/09/18 07:46:34;;;;;;;10.77;7.95;;;14.60;99.90;;;;;;5057081;28;20152;-80
2021/09/18 07:49:00;;;;;;;8.32;7.53;;;14.60;99.90;;;;;;5057341;28;20029;-82
2021/09/18 07:51:27;;;;;;;10.93;8.20;;;14.70;99.90;;;;;;5055594;28;20021;-82
2021/09/18 07:53:52;;;;;;;8.48;7.68;;;14.70;99.90;;;;;;5057960;28;20116;-80
2021/09/18 07:56:19;;;;;;;10.68;7.50;;;14.80;99.90;;;;;;5053613;28;20496;-79
2021/09/18 07:58:45;;;;;;;8.00;7.28;;;14.90;99.90;;;;;;5054424;28;20060;-79
2021/09/18 08:01:11;;;;;;;8.70;7.85;;;14.90;99.90;;;;;;5061223;28;20025;-80
2021/09/18 08:03:36;;;;;;;10.98;8.13;;;14.90;99.90;;;;;;5073296;28;20060;-78
2021/09/18 08:06:02;;;;;;;8.88;7.68;;;14.80;99.90;;;;;;5057183;28;20033;-79
2021/09/18 08:08:28;;;;;;;8.45;7.38;;;15.00;99.90;;;;;;5054660;28;20021;-80
2021/09/18 08:10:54;;;;;;;8.75;7.95;;;15.10;99.90;;;;;;5054869;28;20053;-80
2021/09/18 08:13:19;;;;;;;8.73;7.57;;;15.10;99.90;;;;;;5055125;28;20085;-78
2021/09/18 08:15:45;;;;;;;8.40;7.70;;;15.40;99.90;;;;;;5065014;28;20048;-77
2021/09/18 08:18:11;;;;;;;8.82;7.10;;;15.30;99.90;;;;;;5057894;28;20029;-80
2021/09/18 08:20:36;;;;;;;9.48;7.28;;;15.50;99.90;;;;;;5053454;28;20183;-79
2021/09/18 08:23:02;;;;;;;8.65;7.70;;;15.50;99.90;;;;;;5067592;28;20040;-79
2021/09/18 08:25:28;;;;;;;7.78;7.07;;;15.60;99.90;;;;;;5058751;28;20025;-79
2021/09/18 08:27:54;;;;;;;9.75;8.05;;;15.90;99.90;;;;;;5054016;28;20111;-78
2021/09/18 08:30:19;;;;;;;8.45;7.40;;;16.00;99.90;;;;;;5053206;28;20033;-80
2021/09/18 08:32:45;;;;;;;8.52;7.72;;;16.00;99.90;;;;;;5053732;28;20461;-78
2021/09/18 08:35:12;;;;;;;10.40;7.65;;;16.20;99.90;;;;;;5053790;28;20021;-81
2021/09/18 08:37:38;;;;;;;9.98;7.78;;;16.30;99.90;;;;;;5054592;28;20025;-78
2021/09/18 08:40:05;;;;;;;7.85;7.13;;;16.30;99.90;;;;;;5054062;28;20114;-80
2021/09/18 08:42:30;;;;;;;7.88;7.15;;;16.40;99.90;;;;;;5054939;28;20480;-78
2021/09/18 08:44:56;;;;;;;8.40;6.93;;;16.30;99.90;;;;;;5054466;28;20036;-79
2021/09/18 08:47:23;;;;;;;7.22;6.55;;;16.50;99.90;;;;;;5055949;28;20051;-80
2021/09/18 08:49:49;;;;;;;8.52;6.72;;;16.60;99.90;;;;;;5053171;28;20025;-80
2021/09/18 08:52:14;;;;;;;7.30;6.60;;;16.60;99.90;;;;;;5052604;28;20171;-79
2021/09/18 08:54:41;;;;;;;7.28;6.57;;;16.60;99.90;;;;;;5053882;28;20017;-78
2021/09/18 08:57:10;;;;;;;8.00;6.93;;;16.60;99.90;;;;;;5052730;28;20112;-80
2021/09/18 08:59:37;;;;;;;7.53;6.80;;;16.70;99.90;;;;;;5057966;28;20020;-79
2021/09/18 09:02:15;;;;;;;7.55;6.68;;;16.90;99.90;;;;;;5066116;28;20024;-81
2021/09/18 09:04:41;;;;;;;6.40;5.90;;;17.00;99.90;;;;;;5071703;28;20030;-79
2021/09/18 09:07:09;;;;;;;7.30;6.40;;;17.10;99.90;;;;;;5074974;28;20105;-80
2021/09/18 09:09:55;;;;;;;6.53;6.00;;;17.40;99.90;;;;;;5073027;28;20061;-79
2021/09/18 09:12:29;;;;;;;7.82;7.03;;;17.20;99.90;;;;;;5072564;28;20621;-80
2021/09/18 09:15:00;;;;;;;7.07;6.47;;;17.50;99.90;;;;;;5072410;28;20510;-78
2021/09/18 09:17:27;;;;;;;;;;;17.70;99.90;;;;;;5063490;28;20063;-79
2021/09/18 09:19:54;;;;;;;9.45;6.10;;;17.70;99.90;;;;;;5055171;28;19917;-80
2021/09/18 09:22:47;;;;;;;7.20;6.57;;;17.90;99.90;;;;;;5051749;28;20036;-80
2021/09/18 09:25:29;;;;;;;8.23;7.43;;;18.10;99.90;;;;;;5045433;28;20059;-80
2021/09/18 09:27:56;;;;;;;6.07;5.57;;;17.80;99.90;;;;;;5069708;28;20050;-80
2021/09/18 09:30:29;;;;;;;6.93;6.32;;;18.10;99.90;;;;;;5055677;28;20039;-80
2021/09/18 09:33:08;;;;;;;6.00;5.40;;;18.20;99.90;;;;;;5040420;28;20514;-81
2021/09/18 09:35:35;;;;;;;6.13;5.22;;;18.40;99.90;;;;;;5063728;28;20063;-82
2021/09/18 09:38:01;;;;;;;5.10;4.35;;;18.30;99.90;;;;;;5055358;28;20052;-77
2021/09/18 09:40:48;;;;;;;5.82;5.32;;;18.50;99.90;;;;;;5064290;28;20033;-75
2021/09/18 09:43:15;;;;;;;5.70;4.45;;;18.70;99.90;;;;;;5030319;28;20032;-78
2021/09/18 09:45:41;;;;;;;5.45;4.97;;;18.80;99.90;;;;;;5032188;28;20022;-77
2021/09/18 09:48:20;;;;;;;4.70;3.85;;;18.90;99.90;;;;;;5031223;28;20393;-76
2021/09/18 09:51:01;;;;;;;3.72;3.42;;;18.90;99.90;;;;;;5032882;28;20026;-76
2021/09/18 09:53:32;;;;;;;3.55;3.13;;;19.00;99.90;;;;;;5033829;28;20124;-76
2021/09/18 09:55:57;;;;;;;;;;;19.20;99.90;;;;;;5032493;28;20079;-78
2021/09/18 09:58:23;;;;;;;2.35;2.10;;;19.20;99.90;;;;;;5030695;28;20139;-77
2021/09/18 10:00:51;;;;;;;3.65;2.60;;;19.40;99.90;;;;;;5032338;28;20087;-77
2021/09/18 10:03:25;;;;;;;5.13;2.63;;;19.40;99.90;;;;;;5036461;28;20044;-77
2021/09/18 10:05:52;;;;;;;3.60;2.38;;;19.50;99.90;;;;;;5037094;28;20030;-77
2021/09/18 10:08:23;;;;;;;2.47;2.28;;;19.50;99.90;;;;;;5037977;28;20021;-76
2021/09/18 10:10:50;;;;;;;1.90;1.77;;;19.40;99.90;;;;;;5037923;28;20043;-77
2021/09/18 10:13:16;;;;;;;1.52;1.42;;;19.60;99.90;;;;;;5037200;28;20109;-77
2021/09/18 10:15:44;;;;;;;2.80;1.70;;;19.70;99.90;;;;;;5036644;28;20430;-79
2021/09/18 10:18:10;;;;;;;3.83;2.05;;;19.50;99.90;;;;;;5053753;28;20057;-77
2021/09/18 10:23:17;;;;;;;4.50;2.20;;;19.90;99.90;;;;;;5057319;28;20032;-79
2021/09/18 10:25:50;;;;;;;1.67;1.58;;;20.00;99.90;;;;;;5057427;28;20017;-81
2021/09/18 10:28:21;;;;;;;2.30;1.40;;;20.00;99.90;;;;;;5056396;28;20036;-77
2021/09/18 10:31:00;;;;;;;2.30;2.10;;;19.90;99.90;;;;;;5056565;28;20086;-77
2021/09/18 10:33:30;;;;;;;2.50;2.30;;;20.10;99.90;;;;;;5055718;28;20052;-77
2021/09/18 10:35:58;;;;;;;2.88;2.45;;;20.30;99.90;;;;;;5056599;28;20017;-79
2021/09/18 10:38:30;;;;;;;4.18;3.70;;;20.20;99.90;;;;;;5057277;28;20044;-77
2021/09/18 10:40:59;;;;;;;2.90;2.45;;;20.30;99.90;;;;;;5056888;28;20029;-77
2021/09/18 10:43:32;;;;;;;2.55;2.35;;;20.30;99.90;;;;;;5055343;28;20025;-76
2021/09/18 10:45:59;;;;;;;2.95;2.65;;;20.20;99.90;;;;;;5056642;28;20028;-77
2021/09/18 10:48:47;;;;;;;4.25;3.83;;;20.20;99.90;;;;;;5056018;28;20091;-77
2021/09/18 10:51:36;;;;;;;2.35;2.15;;;20.50;99.90;;;;;;5054541;28;20503;-79
2021/09/18 10:54:05;;;;;;;5.55;2.42;;;20.50;99.90;;;;;;5055244;28;20098;-76
2021/09/18 10:57:00;;;;;;;2.58;2.38;;;20.70;99.90;;;;;;5054988;28;20021;-77
2021/09/18 10:59:42;;;;;;;2.20;2.10;;;20.70;99.90;;;;;;5056360;28;20021;-79
2021/09/18 11:02:47;;;;;;;2.67;2.47;;;20.80;99.90;;;;;;5055903;28;20392;-77
2021/09/18 11:05:21;;;;;;;2.58;2.30;;;20.90;99.90;;;;;;5048746;28;20029;-78
2021/09/18 11:07:48;;;;;;;2.30;2.10;;;21.00;99.90;;;;;;5054972;28;20031;-76
2021/09/18 11:10:43;;;;;;;1.88;1.77;;;20.70;99.90;;;;;;5056789;28;20029;-76
2021/09/18 11:13:08;;;;;;;2.00;1.70;;;21.00;99.90;;;;;;5054910;28;20453;-78
2021/09/18 11:15:48;;;;;;;2.08;1.95;;;21.00;99.30;;;;;;5056323;28;20017;-76
2021/09/18 11:18:15;;;;;;;1.73;1.55;;;21.10;99.40;;;;;;5056412;28;20025;-77
2021/09/18 11:20:44;;;;;;;2.30;1.65;;;21.20;99.10;;;;;;5058189;28;20116;-82
2021/09/18 11:23:10;;;;;;;1.65;1.55;;;21.10;99.00;;;;;;5072439;28;20021;-77
2021/09/18 11:25:44;;;;;;;2.05;1.40;;;21.20;98.90;;;;;;5066779;28;20024;-77
2021/09/18 11:28:14;;;;;;;3.08;2.30;;;21.20;98.90;;;;;;5073599;28;20025;-76
2021/09/18 11:30:52;;;;;;;1.77;1.52;;;21.20;98.20;;;;;;5074245;28;20487;-77
2021/09/18 11:33:23;;;;;;;2.13;1.95;;;21.30;97.80;;;;;;5073789;28;20036;-76
2021/09/18 11:36:02;;;;;;;1.73;1.50;;;21.20;97.80;;;;;;5058294;28;20016;-76
2021/09/18 11:38:32;;;;;;;1.92;1.73;;;21.40;97.70;;;;;;5073554;28;20396;-77
2021/09/18 11:41:12;;;;;;;1.60;1.50;;;21.50;97.50;;;;;;5064393;28;20032;-77
2021/09/18 11:43:39;;;;;;;2.13;1.92;;;21.50;97.50;;;;;;5054538;28;20033;-76
2021/09/18 11:46:06;;;;;;;2.40;1.20;;;21.50;97.10;;;;;;5061126;28;20467;-76
2021/09/18 11:48:35;;;;;;;2.08;1.70;;;21.50;97.60;;;;;;5060900;28;20442;-77
2021/09/18 11:51:04;;;;;;;2.03;1.90;;;21.60;96.80;;;;;;5068721;28;20028;-77
2021/09/18 11:53:34;;;;;;;1.80;1.70;;;21.50;97.50;;;;;;5069425;28;20012;-76
2021/09/18 11:55:59;;;;;;;2.15;1.70;;;21.40;97.60;;;;;;5066203;28;20025;-76
2021/09/18 11:58:30;;;;;;;2.35;1.90;;;21.60;97.40;;;;;;5076877;28;20023;-76
2021/09/18 12:01:04;;;;;;;2.30;2.10;;;21.40;97.80;;;;;;5055513;28;20369;-76
2021/09/18 12:03:40;;;;;;;2.58;2.38;;;21.80;98.50;;;;;;5053825;28;20491;-77
2021/09/18 12:06:08;;;;;;;5.43;2.17;;;21.60;98.80;;;;;;5061425;28;20033;-77
2021/09/18 12:08:36;;;;;;;2.30;2.10;;;21.50;99.00;;;;;;5070086;28;20025;-77
2021/09/18 12:11:09;;;;;;;3.15;2.10;;;21.70;98.80;;;;;;5060875;28;20472;-82
2021/09/18 12:13:43;;;;;;;2.90;2.70;;;21.80;99.20;;;;;;5053944;28;20032;-78
2021/09/18 12:16:10;;;;;;;3.30;2.70;;;21.80;98.60;;;;;;5071497;28;20499;-77
2021/09/18 12:18:41;;;;;;;3.45;3.15;;;21.90;98.00;;;;;;5053159;28;20036;-77
2021/09/18 12:21:19;;;;;;;2.88;2.67;;;21.90;97.60;;;;;;5066389;28;20055;-76
2021/09/18 12:23:47;;;;;;;3.05;2.85;;;22.00;98.50;;;;;;5054244;28;20067;-77
2021/09/18 12:26:17;;;;;;;3.28;2.85;;;22.00;97.90;;;;;;5074191;28;20074;-79
2021/09/18 12:28:43;;;;;;;4.30;2.50;;;21.90;98.10;;;;;;5059399;28;20024;-79
2021/09/18 12:31:21;;;;;;;3.00;2.78;;;21.80;97.50;;;;;;5062717;28;20043;-77
2021/09/18 12:33:48;;;;;;;2.80;2.53;;;21.80;98.10;;;;;;5062333;28;20025;-77
2021/09/18 12:36:32;;;;;;;2.50;2.30;;;21.30;98.60;;;;;;5073104;28;20020;-79
2021/09/18 12:38:58;;;;;;;3.17;2.60;;;21.40;99.00;;;;;;5048149;28;20383;-78
2021/09/18 12:41:29;;;;;;;2.97;2.72;;;21.70;98.80;;;;;;5075008;28;20040;-81
2021/09/18 12:43:56;;;;;;;3.25;2.50;;;21.80;98.90;;;;;;5069084;28;20028;-77
2021/09/18 12:46:25;;;;;;;2.65;2.45;;;21.90;98.50;;;;;;5054289;28;20055;-78